Time;durP1;ratioP1;P1;durP2;ratioP2;P2;SDS_P1;SDS_P2;PMS_P1;PMS_P2;Temp;Humidity;BMP_temperature;BMP_pressure;BME280_temperature;BME280_humidity;BME280_pressure;Samples;Min_cycle;Max_cycle;Signal;HPM_P1;HPM_P2
2022/11/11 00:00:11;;;;;;;4.65;1.27;;;16.60;90.10;;;;;;5059165;28;20025;-76
2022/11/11 00:02:37;;;;;;;3.97;1.50;;;16.60;90.10;;;;;;5056302;28;20094;-74
2022/11/11 00:05:03;;;;;;;5.50;1.30;;;16.60;90.10;;;;;;5068650;28;20024;-76
2022/11/11 00:07:28;;;;;;;4.95;1.30;;;16.60;90.10;;;;;;5066917;28;20063;-75
2022/11/11 00:09:54;;;;;;;4.40;1.30;;;16.50;90.10;;;;;;5068211;28;20013;-76
2022/11/11 00:12:19;;;;;;;4.60;1.30;;;16.60;90.10;;;;;;5068496;28;20467;-76
2022/11/11 00:14:45;;;;;;;3.40;1.33;;;16.50;90.10;;;;;;5068787;28;20028;-75
2022/11/11 00:25:26;;;;;;;4.40;1.30;;;16.50;90.20;;;;;;5053277;28;20040;-74
2022/11/11 00:27:51;;;;;;;3.88;1.20;;;16.50;90.20;;;;;;5030389;28;20033;-76
2022/11/11 00:30:17;;;;;;;3.22;1.25;;;16.50;90.10;;;;;;5050334;28;20029;-77
2022/11/11 00:32:43;;;;;;;4.45;1.17;;;16.50;90.00;;;;;;5068150;28;20126;-74
2022/11/11 00:37:53;;;;;;;3.10;1.25;;;16.50;90.00;;;;;;5068518;28;20112;-75
2022/11/11 00:40:19;;;;;;;4.72;1.60;;;16.50;89.60;;;;;;5066600;28;20126;-75
2022/11/11 00:42:44;;;;;;;3.00;1.15;;;16.50;89.30;;;;;;5066890;28;20552;-75
2022/11/11 00:45:11;;;;;;;4.60;1.33;;;16.50;89.70;;;;;;5067009;28;20036;-77
2022/11/11 00:53:12;;;;;;;5.25;1.30;;;16.50;89.70;;;;;;5068479;28;20818;-75
2022/11/11 00:55:39;;;;;;;3.65;1.40;;;16.40;89.70;;;;;;5049921;28;20082;-76
2022/11/11 00:58:04;;;;;;;2.88;1.10;;;16.40;89.90;;;;;;5068148;28;20512;-75
2022/11/11 01:00:30;;;;;;;2.55;1.00;;;16.40;89.90;;;;;;5067149;28;20037;-74
2022/11/11 01:02:57;;;;;;;7.00;1.17;;;16.40;89.90;;;;;;5057389;28;20039;-76
2022/11/11 01:05:22;;;;;;;3.60;1.27;;;16.40;90.00;;;;;;5067924;28;20038;-76
2022/11/11 01:07:49;;;;;;;3.65;1.25;;;16.40;89.90;;;;;;5069053;28;20115;-79
2022/11/11 01:10:36;;;;;;;4.22;1.42;;;16.40;90.00;;;;;;5052605;28;20383;-74
2022/11/11 01:13:13;;;;;;;4.13;1.40;;;16.40;89.90;;;;;;5067886;28;20052;-75
2022/11/11 01:15:40;;;;;;;4.28;1.50;;;16.30;89.90;;;;;;5067879;28;20021;-76
2022/11/11 01:18:06;;;;;;;2.78;1.20;;;16.40;90.00;;;;;;5059349;28;20031;-76
2022/11/11 01:20:32;;;;;;;3.13;1.10;;;16.30;89.90;;;;;;5051747;28;20112;-76
2022/11/11 01:22:57;;;;;;;3.17;1.30;;;16.40;90.00;;;;;;5051793;28;20108;-75
2022/11/11 01:25:23;;;;;;;2.70;1.08;;;16.30;89.90;;;;;;5051784;28;20441;-75
2022/11/11 01:27:49;;;;;;;2.83;1.00;;;16.30;89.90;;;;;;5033654;28;20515;-75
2022/11/11 01:30:15;;;;;;;2.85;1.10;;;16.30;90.00;;;;;;5033458;28;20023;-76
2022/11/11 01:32:40;;;;;;;4.03;1.30;;;16.30;89.90;;;;;;5033488;28;20033;-76
2022/11/11 01:35:06;;;;;;;3.63;1.10;;;16.30;89.90;;;;;;5050372;28;20505;-75
2022/11/11 01:37:32;;;;;;;3.15;1.10;;;16.30;89.80;;;;;;5051515;28;20076;-75
2022/11/11 01:39:58;;;;;;;3.67;1.17;;;16.30;89.70;;;;;;5057086;28;20028;-75
2022/11/11 01:42:24;;;;;;;2.58;1.10;;;16.40;89.60;;;;;;5071035;28;20127;-77
2022/11/11 01:44:49;;;;;;;3.00;1.10;;;16.40;89.60;;;;;;5070934;28;20093;-76
2022/11/11 01:47:17;;;;;;;2.47;1.10;;;16.40;89.50;;;;;;5071649;28;20147;-77
2022/11/11 01:49:53;;;;;;;2.90;1.00;;;16.40;89.60;;;;;;5069808;28;20025;-76
2022/11/11 01:52:35;;;;;;;2.88;1.20;;;16.30;89.60;;;;;;5070105;28;20055;-75
2022/11/11 01:55:11;;;;;;;4.55;1.42;;;16.30;89.70;;;;;;5070269;28;20064;-75
2022/11/11 01:57:45;;;;;;;2.00;1.00;;;16.30;89.80;;;;;;5069694;28;20051;-76
2022/11/11 02:00:13;;;;;;;2.80;1.10;;;16.30;89.80;;;;;;5070512;28;20982;-76
2022/11/11 02:02:52;;;;;;;3.42;1.10;;;16.30;89.90;;;;;;5052922;28;20100;-77
2022/11/11 02:08:09;;;;;;;2.95;1.10;;;16.30;90.00;;;;;;5071054;28;20035;-76
2022/11/11 02:10:37;;;;;;;2.47;1.17;;;16.30;90.00;;;;;;5070651;28;20381;-75
2022/11/11 02:15:46;;;;;;;3.58;1.38;;;16.20;90.00;;;;;;5071036;28;20032;-75
2022/11/11 02:18:12;;;;;;;2.15;1.10;;;16.30;90.00;;;;;;5070463;28;20439;-79
2022/11/11 02:20:42;;;;;;;2.10;1.10;;;16.20;90.00;;;;;;5069674;28;20518;-76
2022/11/11 02:23:31;;;;;;;2.83;1.10;;;16.10;89.90;;;;;;5050612;28;20044;-77
2022/11/11 02:26:00;;;;;;;1.90;0.95;;;16.20;89.90;;;;;;5050912;28;20542;-76
2022/11/11 02:28:26;;;;;;;4.18;1.48;;;16.20;90.00;;;;;;5032787;28;20037;-75
2022/11/11 02:30:52;;;;;;;2.95;1.08;;;16.30;90.00;;;;;;5045584;28;20024;-75
2022/11/11 02:33:18;;;;;;;3.05;1.10;;;16.30;90.00;;;;;;5069706;28;20391;-77
2022/11/11 02:35:55;;;;;;;2.03;1.00;;;16.30;90.00;;;;;;5070645;28;20551;-75
2022/11/11 02:38:21;;;;;;;2.45;1.00;;;16.20;89.80;;;;;;5052644;28;20052;-75
2022/11/11 02:43:32;;;;;;;2.83;1.00;;;16.30;89.60;;;;;;5050476;28;20562;-75
2022/11/11 02:46:00;;;;;;;2.53;1.10;;;16.30;89.50;;;;;;5032667;28;20037;-76
2022/11/11 02:48:26;;;;;;;2.90;0.90;;;16.30;89.40;;;;;;5049056;28;20025;-75
2022/11/11 02:50:52;;;;;;;2.67;1.10;;;16.20;89.30;;;;;;5048620;28;20060;-77
2022/11/11 02:53:18;;;;;;;2.42;1.15;;;16.30;90.00;;;;;;5049054;28;20025;-75
2022/11/11 02:55:43;;;;;;;3.03;1.13;;;16.30;89.50;;;;;;5048928;28;20025;-78
2022/11/11 02:58:09;;;;;;;2.83;1.13;;;16.30;89.70;;;;;;5050120;28;20108;-77
2022/11/11 03:00:35;;;;;;;2.28;0.98;;;16.20;89.70;;;;;;5060618;28;20056;-75
2022/11/11 03:03:00;;;;;;;2.47;0.95;;;16.20;89.70;;;;;;5082178;28;20075;-75
2022/11/11 03:05:26;;;;;;;2.05;1.05;;;16.20;89.70;;;;;;5090542;28;20016;-74
2022/11/11 03:07:51;;;;;;;3.35;1.17;;;16.20;89.80;;;;;;5089948;28;20027;-75
2022/11/11 03:10:17;;;;;;;2.25;1.00;;;16.20;89.70;;;;;;5065803;28;20021;-75
2022/11/11 03:12:42;;;;;;;2.42;1.00;;;16.20;89.70;;;;;;5069721;28;20024;-76
2022/11/11 03:15:08;;;;;;;3.28;1.15;;;16.20;89.70;;;;;;5069542;28;20100;-76
2022/11/11 03:17:40;;;;;;;2.75;1.13;;;16.20;89.70;;;;;;5069227;28;20071;-78
2022/11/11 03:23:05;;;;;;;4.13;1.17;;;16.20;89.80;;;;;;5069490;28;20047;-76
2022/11/11 03:25:37;;;;;;;1.83;0.90;;;16.20;89.70;;;;;;5069711;28;20494;-75
2022/11/11 03:28:15;;;;;;;3.08;1.10;;;16.20;89.60;;;;;;5068422;28;20025;-75
2022/11/11 03:30:42;;;;;;;3.22;1.13;;;16.10;89.70;;;;;;5059764;28;20043;-76
2022/11/11 03:33:08;;;;;;;1.95;0.95;;;16.10;89.60;;;;;;5051222;28;20383;-75
2022/11/11 03:35:34;;;;;;;3.10;1.00;;;16.10;89.70;;;;;;5051848;28;20503;-75
2022/11/11 03:40:46;;;;;;;2.65;1.13;;;16.10;89.70;;;;;;5062220;28;20035;-76
2022/11/11 03:43:13;;;;;;;1.92;0.95;;;16.10;89.60;;;;;;5048778;28;20035;-78
2022/11/11 03:45:39;;;;;;;1.80;1.05;;;16.20;89.40;;;;;;5050702;28;20460;-76
2022/11/11 03:48:05;;;;;;;2.33;1.13;;;16.20;89.30;;;;;;5069037;28;20067;-74
2022/11/11 03:50:31;;;;;;;2.95;1.10;;;16.20;89.20;;;;;;5059509;28;20033;-76
2022/11/11 03:52:56;;;;;;;2.20;0.95;;;16.20;89.10;;;;;;5047892;28;20028;-76
2022/11/11 03:55:22;;;;;;;2.85;1.10;;;16.20;89.10;;;;;;5049042;28;20472;-76
2022/11/11 03:57:48;;;;;;;1.88;0.90;;;16.20;89.10;;;;;;5049073;28;20029;-75
2022/11/11 04:00:17;;;;;;;1.83;1.00;;;16.20;89.10;;;;;;5056816;28;20028;-75
2022/11/11 04:10:58;;;;;;;5.55;1.38;;;16.10;87.30;;;;;;5056689;28;20079;-76
2022/11/11 04:16:08;;;;;;;6.18;1.40;;;16.10;87.80;;;;;;5063112;28;20094;-75
2022/11/11 04:25:47;;;;;;;2.97;1.08;;;16.10;88.00;;;;;;5072927;28;20035;-75
2022/11/11 04:26:52;;;;;;;3.75;1.30;;;16.10;88.10;;;;;;5073405;28;20195;-75
2022/11/11 04:29:29;;;;;;;3.13;1.70;;;16.10;88.20;;;;;;5068127;28;20021;-75
2022/11/11 04:34:57;;;;;;;2.10;1.00;;;16.10;88.30;;;;;;5056285;28;20129;-78
2022/11/11 04:37:25;;;;;;;3.20;1.27;;;16.10;88.30;;;;;;5050131;28;20028;-75
2022/11/11 04:42:37;;;;;;;5.35;1.55;;;16.10;88.50;;;;;;5064616;28;20044;-75
2022/11/11 04:47:58;;;;;;;2.92;1.15;;;16.10;88.50;;;;;;5068326;28;20039;-75
2022/11/11 04:50:27;;;;;;;3.75;1.33;;;16.10;88.50;;;;;;5067680;28;20025;-74
2022/11/11 04:52:53;;;;;;;3.53;1.25;;;16.10;88.50;;;;;;5049988;28;20032;-76
2022/11/11 04:58:03;;;;;;;5.47;1.40;;;16.10;88.30;;;;;;5068475;28;20039;-75
2022/11/11 05:00:28;;;;;;;4.90;1.38;;;16.10;88.20;;;;;;5049266;28;20028;-76
2022/11/11 05:11:07;;;;;;;3.00;1.15;;;16.00;88.40;;;;;;5067420;28;20031;-76
2022/11/11 05:21:54;;;;;;;2.15;1.20;;;16.10;88.60;;;;;;5048463;28;20047;-82
2022/11/11 05:27:03;;;;;;;3.83;1.17;;;16.00;88.70;;;;;;5068982;28;20506;-75
2022/11/11 05:29:29;;;;;;;1.83;1.10;;;16.00;88.60;;;;;;5056702;28;20112;-75
2022/11/11 05:31:54;;;;;;;2.20;1.25;;;16.00;88.60;;;;;;5047296;28;20029;-74
2022/11/11 05:34:20;;;;;;;2.35;1.05;;;16.00;88.60;;;;;;5049548;28;20115;-78
2022/11/11 05:36:45;;;;;;;2.65;1.17;;;16.00;88.70;;;;;;5068079;28;20099;-75
2022/11/11 05:39:11;;;;;;;2.65;1.10;;;16.00;88.70;;;;;;5067678;28;20028;-77
2022/11/11 05:41:36;;;;;;;1.73;1.00;;;16.00;88.60;;;;;;5067370;28;20666;-74
2022/11/11 05:44:02;;;;;;;3.25;1.33;;;16.00;88.60;;;;;;5065845;28;20025;-74
2022/11/11 05:46:27;;;;;;;2.60;1.10;;;16.00;88.70;;;;;;5058297;28;20025;-76
2022/11/11 05:51:37;;;;;;;3.92;1.35;;;16.00;88.60;;;;;;5066981;28;20055;-76
2022/11/11 05:54:03;;;;;;;2.33;1.05;;;16.00;88.40;;;;;;5067146;28;20028;-73
2022/11/11 05:56:28;;;;;;;1.70;0.98;;;16.00;88.30;;;;;;5049164;28;20391;-74
2022/11/11 05:58:54;;;;;;;2.38;1.10;;;16.10;88.40;;;;;;5052178;28;20477;-74
2022/11/11 06:01:19;;;;;;;3.92;1.20;;;16.00;88.20;;;;;;5048802;28;20037;-74
2022/11/11 06:03:45;;;;;;;2.53;1.05;;;16.10;88.20;;;;;;5061224;28;20044;-76
2022/11/11 06:06:11;;;;;;;3.55;1.10;;;16.00;88.00;;;;;;5050247;28;20037;-75
2022/11/11 06:08:37;;;;;;;2.83;1.17;;;16.10;87.80;;;;;;5066707;28;20040;-74
2022/11/11 06:11:02;;;;;;;2.28;1.17;;;16.10;87.90;;;;;;5042874;28;20070;-76
2022/11/11 06:13:28;;;;;;;2.35;1.20;;;16.00;87.90;;;;;;5051263;28;20036;-76
2022/11/11 06:15:56;;;;;;;2.25;1.10;;;16.00;88.00;;;;;;5052797;28;20539;-74
2022/11/11 06:18:22;;;;;;;3.80;1.10;;;15.90;88.00;;;;;;5048836;28;20033;-74
2022/11/11 06:20:55;;;;;;;1.92;1.10;;;16.00;88.00;;;;;;5064357;28;20032;-74
2022/11/11 06:23:21;;;;;;;2.40;1.00;;;16.00;87.90;;;;;;5052329;28;20559;-78
2022/11/11 06:28:31;;;;;;;3.00;1.15;;;16.00;88.10;;;;;;5063733;28;20598;-76
2022/11/11 06:30:57;;;;;;;3.20;1.25;;;16.00;88.20;;;;;;5066607;28;20051;-74
2022/11/11 06:33:23;;;;;;;2.40;1.13;;;16.00;88.10;;;;;;5072208;28;20035;-77
2022/11/11 06:35:48;;;;;;;2.28;1.17;;;16.00;88.10;;;;;;5067891;28;20031;-75
2022/11/11 06:38:14;;;;;;;3.92;1.10;;;15.90;88.10;;;;;;5049798;28;20028;-75
2022/11/11 06:40:41;;;;;;;1.67;0.95;;;15.90;88.10;;;;;;5067816;28;20016;-75
2022/11/11 06:43:07;;;;;;;2.55;1.35;;;15.90;88.10;;;;;;5067244;28;20393;-76
2022/11/11 06:45:34;;;;;;;3.28;1.00;;;15.90;88.10;;;;;;5066750;28;20039;-74
2022/11/11 06:47:59;;;;;;;4.20;1.40;;;16.00;88.20;;;;;;5048975;28;20044;-73
2022/11/11 06:50:25;;;;;;;4.13;1.20;;;15.90;87.90;;;;;;5048696;28;20031;-74
2022/11/11 06:52:51;;;;;;;3.47;1.30;;;15.90;87.90;;;;;;5066799;28;20036;-76
2022/11/11 06:55:17;;;;;;;2.22;1.20;;;15.90;88.00;;;;;;5048827;28;20031;-75
2022/11/11 06:57:43;;;;;;;2.42;1.10;;;15.90;88.00;;;;;;5049103;28;20047;-75
2022/11/11 07:00:09;;;;;;;2.70;1.10;;;15.90;88.00;;;;;;5048721;28;20503;-75
2022/11/11 07:02:35;;;;;;;3.15;1.30;;;15.90;87.70;;;;;;5049038;28;20567;-76
2022/11/11 07:05:00;;;;;;;1.65;0.90;;;16.00;87.30;;;;;;5067178;28;20119;-74
2022/11/11 07:07:27;;;;;;;3.35;1.30;;;16.00;87.00;;;;;;5066771;28;20103;-77
2022/11/11 07:09:54;;;;;;;2.60;1.05;;;16.00;87.20;;;;;;5066663;28;20479;-73
2022/11/11 07:12:21;;;;;;;3.20;1.35;;;16.00;87.20;;;;;;5066552;28;20111;-76
2022/11/11 07:14:46;;;;;;;2.40;1.10;;;16.00;87.20;;;;;;5066857;28;20025;-75
2022/11/11 07:17:12;;;;;;;2.25;1.10;;;16.00;87.30;;;;;;5047655;28;20652;-74
2022/11/11 07:19:38;;;;;;;3.22;1.10;;;16.00;87.50;;;;;;5066361;28;20036;-74
2022/11/11 07:22:03;;;;;;;1.73;1.05;;;16.00;87.60;;;;;;5048444;28;20028;-77
2022/11/11 07:24:29;;;;;;;2.08;1.13;;;16.00;87.70;;;;;;5066596;28;20044;-75
2022/11/11 07:26:54;;;;;;;2.78;1.17;;;16.00;87.70;;;;;;5066559;28;20036;-74
2022/11/11 07:29:20;;;;;;;2.30;1.13;;;16.00;87.70;;;;;;5066153;28;20381;-74
2022/11/11 07:31:45;;;;;;;2.28;1.10;;;16.00;87.70;;;;;;5066632;28;20040;-75
2022/11/11 07:34:11;;;;;;;3.15;1.33;;;15.90;87.60;;;;;;5048170;28;20046;-73
2022/11/11 07:36:37;;;;;;;2.75;1.10;;;15.90;87.70;;;;;;5066439;28;20025;-73
2022/11/11 07:39:02;;;;;;;2.85;1.17;;;16.00;87.70;;;;;;5065954;28;20272;-74
2022/11/11 07:41:28;;;;;;;1.58;0.90;;;16.00;87.60;;;;;;5066119;28;20036;-73
2022/11/11 07:43:53;;;;;;;2.72;1.20;;;15.90;87.40;;;;;;5048304;28;20032;-75
2022/11/11 07:46:19;;;;;;;1.88;1.00;;;16.00;87.40;;;;;;5066147;28;20032;-75
2022/11/11 07:48:44;;;;;;;2.83;1.10;;;16.00;87.40;;;;;;5048150;28;20032;-76
2022/11/11 07:51:10;;;;;;;3.58;1.52;;;16.00;87.20;;;;;;5065583;28;20138;-75
2022/11/11 07:53:35;;;;;;;2.78;1.02;;;16.00;87.20;;;;;;5066130;28;20055;-74
2022/11/11 07:56:01;;;;;;;2.15;1.10;;;16.00;86.90;;;;;;5047886;28;20510;-76
2022/11/11 07:58:26;;;;;;;2.85;1.23;;;16.00;86.80;;;;;;5048107;28;20037;-75
2022/11/11 08:00:52;;;;;;;2.33;1.20;;;16.00;86.80;;;;;;5047522;28;20032;-74
2022/11/11 08:03:18;;;;;;;1.85;1.02;;;16.00;86.80;;;;;;5065761;28;20124;-73
2022/11/11 08:05:43;;;;;;;3.30;1.20;;;16.00;86.80;;;;;;5047846;28;20458;-77
2022/11/11 08:08:10;;;;;;;2.05;1.30;;;16.00;86.30;;;;;;5065694;28;20032;-75
2022/11/11 08:10:35;;;;;;;2.28;1.08;;;16.00;86.10;;;;;;5047391;28;20116;-76
2022/11/11 08:15:46;;;;;;;2.00;1.00;;;16.10;86.10;;;;;;5066454;28;20478;-74
2022/11/11 08:18:12;;;;;;;2.75;1.20;;;16.10;85.80;;;;;;5065396;28;20119;-75
2022/11/11 08:20:37;;;;;;;3.10;1.30;;;16.10;85.90;;;;;;5065172;28;20089;-76
2022/11/11 08:23:04;;;;;;;3.25;1.15;;;16.10;85.80;;;;;;5065315;28;20064;-75
2022/11/11 08:25:30;;;;;;;2.75;1.10;;;16.10;85.70;;;;;;5065484;28;20033;-76
2022/11/11 08:28:00;;;;;;;2.40;1.25;;;16.10;85.70;;;;;;5047163;28;20119;-75
2022/11/11 08:30:26;;;;;;;2.78;1.10;;;16.10;85.90;;;;;;5047140;28;20063;-76
2022/11/11 08:33:02;;;;;;;1.40;1.00;;;16.00;85.60;;;;;;5065434;28;20055;-75
2022/11/11 08:35:28;;;;;;;2.25;1.05;;;16.10;85.90;;;;;;5065547;28;20028;-75
2022/11/11 08:37:54;;;;;;;1.92;1.00;;;16.10;86.00;;;;;;5065181;28;20481;-73
2022/11/11 08:40:20;;;;;;;2.65;1.30;;;16.10;86.30;;;;;;5046851;28;20033;-75
2022/11/11 08:42:45;;;;;;;2.03;1.13;;;16.10;85.80;;;;;;5047426;28;20036;-76
2022/11/11 08:45:11;;;;;;;2.10;1.10;;;16.10;85.80;;;;;;5065619;28;20036;-76
2022/11/11 08:47:37;;;;;;;2.28;1.10;;;16.10;85.80;;;;;;5065124;28;20053;-75
2022/11/11 08:50:04;;;;;;;2.90;1.08;;;16.20;85.60;;;;;;5046851;28;20024;-75
2022/11/11 08:52:30;;;;;;;2.15;1.10;;;16.20;85.40;;;;;;5065025;28;20028;-74
2022/11/11 08:54:55;;;;;;;2.70;1.20;;;16.20;85.50;;;;;;5047176;28;20024;-74
2022/11/11 08:57:21;;;;;;;2.10;1.10;;;16.20;85.40;;;;;;5065409;28;20479;-73
2022/11/11 08:59:46;;;;;;;2.58;1.08;;;16.20;85.30;;;;;;5046773;28;20131;-74
2022/11/11 09:02:13;;;;;;;2.72;1.17;;;16.30;85.40;;;;;;5047099;28;20089;-76
2022/11/11 09:04:39;;;;;;;1.90;1.20;;;16.30;85.60;;;;;;5046947;28;20403;-75
2022/11/11 09:07:06;;;;;;;2.03;1.10;;;16.30;85.50;;;;;;5047183;28;20028;-74
2022/11/11 09:09:31;;;;;;;2.65;1.10;;;16.30;85.60;;;;;;5064763;28;20429;-73
2022/11/11 09:11:57;;;;;;;2.25;1.08;;;16.30;85.50;;;;;;5047365;28;20060;-75
2022/11/11 09:14:22;;;;;;;2.63;1.23;;;16.30;85.40;;;;;;5064656;28;20029;-74
2022/11/11 09:16:49;;;;;;;2.55;1.10;;;16.40;85.30;;;;;;5047291;28;20021;-73
2022/11/11 09:19:15;;;;;;;2.90;1.17;;;16.40;85.40;;;;;;5064705;28;20446;-74
2022/11/11 09:21:40;;;;;;;1.13;0.80;;;16.40;85.20;;;;;;5064913;28;20519;-77
2022/11/11 09:24:06;;;;;;;1.48;0.90;;;16.40;85.70;;;;;;5064819;28;20021;-75
2022/11/11 09:26:31;;;;;;;3.40;1.30;;;16.40;85.20;;;;;;5047607;28;20388;-75
2022/11/11 09:28:57;;;;;;;2.47;1.20;;;16.40;85.20;;;;;;5063463;28;20029;-75
2022/11/11 09:31:22;;;;;;;2.05;1.10;;;16.40;85.10;;;;;;5064607;28;20492;-75
2022/11/11 09:33:49;;;;;;;2.53;1.15;;;16.40;85.10;;;;;;5046622;28;20107;-76
2022/11/11 09:36:14;;;;;;;2.30;1.05;;;16.40;85.50;;;;;;5046957;28;20024;-74
2022/11/11 09:38:40;;;;;;;1.75;1.00;;;16.40;84.90;;;;;;5046371;28;20052;-76
2022/11/11 09:41:20;;;;;;;1.65;0.93;;;16.40;84.90;;;;;;5049584;28;20413;-74
2022/11/11 09:43:58;;;;;;;2.17;1.00;;;16.40;84.80;;;;;;5068746;28;20028;-75
2022/11/11 09:46:40;;;;;;;1.42;0.93;;;16.50;84.80;;;;;;5050481;28;20426;-76
2022/11/11 09:49:31;;;;;;;2.60;1.02;;;16.50;84.70;;;;;;5050131;28;20119;-74
2022/11/11 09:52:03;;;;;;;2.45;1.08;;;16.50;84.70;;;;;;5050623;28;20047;-75
2022/11/11 09:54:37;;;;;;;1.52;0.95;;;16.50;84.70;;;;;;5068420;28;20033;-74
2022/11/11 09:57:09;;;;;;;2.50;1.08;;;16.50;84.60;;;;;;5050115;28;20025;-75
2022/11/11 09:59:56;;;;;;;2.35;1.00;;;16.60;84.60;;;;;;5067929;28;20036;-74
2022/11/11 10:02:41;;;;;;;1.20;0.80;;;16.60;84.40;;;;;;5068089;28;20039;-76
2022/11/11 10:05:16;;;;;;;1.88;0.90;;;16.60;84.10;;;;;;5050155;28;20021;-74
2022/11/11 10:07:53;;;;;;;2.38;1.13;;;16.60;84.10;;;;;;5050009;28;20032;-75
2022/11/11 10:10:38;;;;;;;1.58;0.90;;;16.70;84.10;;;;;;5067771;28;20032;-74
2022/11/11 10:13:13;;;;;;;3.08;1.40;;;16.70;84.00;;;;;;5067807;28;20434;-75
2022/11/11 10:15:54;;;;;;;1.50;0.90;;;16.70;83.90;;;;;;5050055;28;20024;-73
2022/11/11 10:18:40;;;;;;;1.98;0.95;;;16.80;83.80;;;;;;5068245;28;20036;-74
2022/11/11 10:21:13;;;;;;;2.15;1.10;;;16.80;83.60;;;;;;5067504;28;20075;-74
2022/11/11 10:23:41;;;;;;;1.67;0.90;;;16.90;83.40;;;;;;5067794;28;20139;-74
2022/11/11 10:26:20;;;;;;;1.67;0.98;;;16.90;83.10;;;;;;5067905;28;20404;-74
2022/11/11 10:28:47;;;;;;;3.33;1.05;;;17.00;83.00;;;;;;5049600;28;20040;-75
2022/11/11 10:31:20;;;;;;;2.38;1.10;;;17.00;82.80;;;;;;5067298;28;20052;-74
2022/11/11 10:33:54;;;;;;;1.60;0.90;;;17.00;82.70;;;;;;5067558;28;20107;-74
2022/11/11 10:36:22;;;;;;;1.88;1.10;;;17.00;82.60;;;;;;5049599;28;20595;-74
2022/11/11 10:39:10;;;;;;;1.45;0.93;;;17.10;82.60;;;;;;5067283;28;20056;-76
2022/11/11 10:41:43;;;;;;;2.22;1.00;;;17.00;82.50;;;;;;5049377;28;20071;-74
2022/11/11 10:44:24;;;;;;;1.88;1.08;;;17.00;82.60;;;;;;5067060;28;20086;-75
2022/11/11 10:46:57;;;;;;;2.30;1.00;;;17.00;82.50;;;;;;5067107;28;20549;-75
2022/11/11 10:49:27;;;;;;;2.17;0.95;;;17.00;82.50;;;;;;5066978;28;20028;-74
2022/11/11 10:52:02;;;;;;;1.20;0.80;;;17.10;82.50;;;;;;5067191;28;20486;-74
2022/11/11 10:54:40;;;;;;;2.08;1.00;;;17.10;82.50;;;;;;5067187;28;20027;-75
2022/11/11 10:57:22;;;;;;;1.40;1.00;;;17.10;82.40;;;;;;5067245;28;20028;-74
2022/11/11 11:00:01;;;;;;;2.72;0.93;;;17.10;82.40;;;;;;5066822;28;20052;-74
2022/11/11 11:02:33;;;;;;;1.77;0.75;;;17.10;82.40;;;;;;5049195;28;20036;-74
2022/11/11 11:05:12;;;;;;;1.50;0.77;;;17.10;82.40;;;;;;5066923;28;20029;-76
2022/11/11 11:07:47;;;;;;;1.77;1.10;;;17.20;82.40;;;;;;5049169;28;20200;-74
2022/11/11 11:10:14;;;;;;;1.45;0.93;;;17.20;82.40;;;;;;5048554;28;20545;-74
2022/11/11 11:13:06;;;;;;;1.88;1.10;;;17.20;82.40;;;;;;5049099;28;20030;-74
2022/11/11 11:15:37;;;;;;;2.75;1.15;;;17.20;82.30;;;;;;5067110;28;20836;-74
2022/11/11 11:18:11;;;;;;;1.40;0.90;;;17.20;82.30;;;;;;5048623;28;20032;-75
2022/11/11 11:20:37;;;;;;;1.15;0.75;;;17.20;82.40;;;;;;5066744;28;20036;-73
2022/11/11 11:23:03;;;;;;;1.98;1.02;;;17.20;82.20;;;;;;5066720;28;20097;-76
2022/11/11 11:25:34;;;;;;;1.88;0.85;;;17.30;82.10;;;;;;5066427;28;20034;-74
2022/11/11 11:28:09;;;;;;;2.45;1.05;;;17.30;82.10;;;;;;5048576;28;20441;-74
2022/11/11 11:30:34;;;;;;;2.15;1.00;;;17.30;82.00;;;;;;5048159;28;20571;-75
2022/11/11 11:33:01;;;;;;;2.08;0.90;;;17.30;81.80;;;;;;5066338;28;20035;-76
2022/11/11 11:35:38;;;;;;;2.47;1.13;;;17.40;81.80;;;;;;5066462;28;20500;-76
2022/11/11 11:38:06;;;;;;;2.38;0.90;;;17.40;81.60;;;;;;5048418;28;20086;-75
2022/11/11 11:41:01;;;;;;;1.75;0.90;;;17.40;81.50;;;;;;5065802;28;20100;-75
2022/11/11 11:43:41;;;;;;;2.10;1.00;;;17.40;81.50;;;;;;5043890;28;20032;-74
2022/11/11 11:46:20;;;;;;;1.80;0.95;;;17.30;81.50;;;;;;5048329;28;20030;-74
2022/11/11 11:49:00;;;;;;;1.30;1.00;;;17.30;81.60;;;;;;5048209;28;20070;-74
2022/11/11 11:51:44;;;;;;;2.05;1.08;;;17.30;81.70;;;;;;5066060;28;20056;-74
2022/11/11 11:54:10;;;;;;;1.75;1.00;;;17.30;81.80;;;;;;5065832;28;20105;-74
2022/11/11 11:56:47;;;;;;;1.60;1.00;;;17.30;81.90;;;;;;5048222;28;20078;-73
2022/11/11 11:59:27;;;;;;;1.10;0.70;;;17.20;81.90;;;;;;5065673;28;20043;-75
2022/11/11 12:02:35;;;;;;;2.40;1.10;;;17.30;82.10;;;;;;5047631;28;20028;-75
2022/11/11 12:05:26;;;;;;;1.27;0.80;;;17.20;82.10;;;;;;5044025;28;20047;-76
2022/11/11 12:07:57;;;;;;;2.20;1.00;;;17.20;82.10;;;;;;5065783;28;20028;-75
2022/11/11 12:10:33;;;;;;;;;;;17.20;82.20;;;;;;5048279;28;20396;-75
2022/11/11 12:13:15;;;;;;;1.55;0.98;;;17.20;82.20;;;;;;5047659;28;19966;-74
2022/11/11 12:16:13;;;;;;;1.77;0.77;;;17.20;82.30;;;;;;5065794;28;20028;-74
2022/11/11 12:19:00;;;;;;;1.90;0.70;;;17.20;82.30;;;;;;5040398;28;20044;-75
2022/11/11 12:21:46;;;;;;;2.55;0.95;;;17.20;82.40;;;;;;5065421;28;20034;-75
2022/11/11 12:24:17;;;;;;;1.67;0.80;;;17.20;82.50;;;;;;5047629;28;20028;-74
2022/11/11 12:27:06;;;;;;;1.35;0.90;;;17.20;82.50;;;;;;5065480;28;20039;-76
2022/11/11 12:29:53;;;;;;;1.63;1.00;;;17.20;82.40;;;;;;5064995;28;20036;-75
2022/11/11 12:32:43;;;;;;;1.15;0.73;;;17.20;82.40;;;;;;5047252;28;20031;-76
2022/11/11 12:35:30;;;;;;;0.95;0.70;;;17.20;82.30;;;;;;5047173;28;20031;-74
2022/11/11 12:38:10;;;;;;;2.38;1.05;;;17.20;82.20;;;;;;5047479;28;20496;-75
2022/11/11 12:41:05;;;;;;;1.40;0.83;;;17.20;82.20;;;;;;5065285;28;20036;-75
2022/11/11 12:43:47;;;;;;;1.10;0.80;;;17.20;82.20;;;;;;5047602;28;20269;-74
2022/11/11 12:46:29;;;;;;;1.63;0.80;;;17.20;82.10;;;;;;5047272;28;20021;-75
2022/11/11 12:49:23;;;;;;;1.27;0.80;;;17.10;82.20;;;;;;5064945;28;20036;-74
2022/11/11 12:51:48;;;;;;;1.52;0.70;;;17.10;82.40;;;;;;5065208;28;20051;-74
2022/11/11 12:54:34;;;;;;;1.60;0.85;;;17.10;82.50;;;;;;5047242;28;20500;-75
2022/11/11 12:57:05;;;;;;;1.35;0.77;;;17.10;82.60;;;;;;5065095;28;20017;-74
2022/11/11 12:59:30;;;;;;;1.73;0.90;;;17.10;82.80;;;;;;5064622;28;20112;-77
2022/11/11 13:02:14;;;;;;;1.50;0.73;;;17.00;82.90;;;;;;5047144;28;20116;-74
2022/11/11 13:05:24;;;;;;;1.80;0.80;;;17.00;83.00;;;;;;5047033;28;20029;-76
2022/11/11 13:07:56;;;;;;;1.65;0.75;;;17.00;83.00;;;;;;5022308;28;20516;-74
2022/11/11 13:10:36;;;;;;;;;;;17.00;83.20;;;;;;5022830;28;20120;-75
2022/11/11 13:13:23;;;;;;;2.00;0.80;;;17.00;83.30;;;;;;5048059;28;19919;-74
2022/11/11 13:15:49;;;;;;;1.83;0.82;;;16.90;83.30;;;;;;5067732;28;20032;-76
2022/11/11 13:18:22;;;;;;;1.13;0.80;;;16.90;83.40;;;;;;5069271;28;20024;-75
2022/11/11 13:21:01;;;;;;;1.25;0.70;;;16.90;83.50;;;;;;5050648;28;20032;-77
2022/11/11 13:23:27;;;;;;;1.45;0.80;;;16.90;83.50;;;;;;5069024;28;20028;-75
2022/11/11 13:25:59;;;;;;;1.15;0.80;;;16.90;83.60;;;;;;5050945;28;20586;-74
2022/11/11 13:28:38;;;;;;;1.23;0.77;;;16.80;83.60;;;;;;5051073;28;20119;-75
2022/11/11 13:31:14;;;;;;;1.00;0.73;;;16.80;83.70;;;;;;5049167;28;20020;-75
2022/11/11 13:33:49;;;;;;;1.60;0.80;;;16.80;83.50;;;;;;5069519;28;20542;-76
2022/11/11 13:36:19;;;;;;;1.20;0.70;;;16.80;83.50;;;;;;5051145;28;20021;-75
2022/11/11 13:38:50;;;;;;;1.67;1.00;;;16.80;83.40;;;;;;5050554;28;20032;-76
2022/11/11 13:41:26;;;;;;;1.52;0.75;;;16.90;83.40;;;;;;5064946;28;20034;-75
2022/11/11 13:43:53;;;;;;;1.13;0.70;;;16.80;83.20;;;;;;5069453;28;20040;-74
2022/11/11 13:46:40;;;;;;;1.50;0.70;;;16.90;83.20;;;;;;5041699;28;20029;-76
2022/11/11 13:49:25;;;;;;;1.48;0.80;;;16.80;83.20;;;;;;5049481;28;20028;-74
2022/11/11 13:52:03;;;;;;;2.05;0.80;;;16.80;83.30;;;;;;5050613;28;20021;-74
2022/11/11 13:54:35;;;;;;;1.38;0.70;;;16.80;83.50;;;;;;5050798;28;20025;-74
2022/11/11 13:57:08;;;;;;;2.15;0.80;;;16.80;83.70;;;;;;5050976;28;20062;-76
2022/11/11 13:59:39;;;;;;;1.33;0.80;;;16.80;83.70;;;;;;5067950;28;20071;-75
2022/11/11 14:02:17;;;;;;;1.85;0.80;;;16.80;83.80;;;;;;5068139;28;20024;-76
2022/11/11 14:05:01;;;;;;;1.42;0.77;;;16.70;83.90;;;;;;5050598;28;20021;-77
2022/11/11 14:07:48;;;;;;;1.65;0.80;;;16.70;84.00;;;;;;5050056;28;20036;-74
2022/11/11 14:10:16;;;;;;;2.25;0.80;;;16.70;84.10;;;;;;5067808;28;20024;-74
2022/11/11 14:12:46;;;;;;;2.25;0.80;;;16.70;84.30;;;;;;5067943;28;20377;-75
2022/11/11 14:15:37;;;;;;;1.65;0.90;;;16.60;84.10;;;;;;5068178;28;20025;-76
2022/11/11 14:18:06;;;;;;;;;;;16.60;84.30;;;;;;5050772;28;20032;-74
2022/11/11 14:20:33;;;;;;;2.17;0.90;;;16.60;84.40;;;;;;5049639;28;19915;-76
2022/11/11 14:23:17;;;;;;;1.58;0.70;;;16.60;84.50;;;;;;5067732;28;20039;-77
2022/11/11 14:25:48;;;;;;;1.00;0.60;;;16.60;84.60;;;;;;5049408;28;20033;-73
2022/11/11 14:28:27;;;;;;;1.15;0.60;;;16.60;84.60;;;;;;5049639;28;20519;-75
2022/11/11 14:31:14;;;;;;;1.30;0.80;;;16.60;84.70;;;;;;5049755;28;20028;-75